CST,Max TemperatureF,Mean TemperatureF,Min TemperatureF,Max Dew PointF,MeanDew PointF,Min DewpointF,Max Humidity, Mean Humidity, Min Humidity, Max Sea Level PressureIn, Mean Sea Level PressureIn, Min Sea Level PressureIn, Max VisibilityMiles, Mean VisibilityMiles, Min VisibilityMiles, Max Wind SpeedMPH, Mean Wind SpeedMPH, Max Gust SpeedMPH,PrecipitationIn, CloudCover, Events, WindDirDegrees
2014-1-1,25,22,18,18,16,13,88,79,71,30.47,30.24,30.00,10,7,0,22,10,,0.01,7,Fog-Snow,8
2014-1-2,41,28,15,25,19,14,92,77,47,30.44,30.35,30.24,10,10,9,12,8,,0.00,2,,215
2014-1-3,66,39,11,28,21,10,92,62,19,30.19,29.82,29.56,10,8,5,21,7,29,0.00,1,,175
2014-1-4,46,30,14,30,16,1,82,63,38,30.29,29.99,29.68,10,9,1,32,17,38,T,5,Snow,5
2014-1-5,17,5,-8,8,2,-16,81,72,59,30.73,30.44,30.28,10,5,1,20,11,23,T,6,Snow,354
2014-1-6,20,4,-12,7,-7,-18,78,61,40,30.67,30.53,30.25,10,10,10,12,8,,0.00,1,,259
2014-1-7,50,32,14,20,14,7,70,53,25,30.22,30.12,30.00,10,10,4,17,10,,0.00,1,,267
2014-1-8,31,26,20,21,19,16,88,77,66,30.32,30.24,30.07,10,10,6,16,10,,0.00,8,,101
2014-1-9,39,25,11,25,18,9,96,84,57,30.27,30.04,29.75,8,5,2,17,8,23,0.00,2,,157
2014-1-10,41,33,24,34,27,18,100,88,49,29.82,29.69,29.59,10,6,1,25,10,,T,7,Snow,257
2014-1-11,56,42,27,25,21,19,72,48,24,30.00,29.85,29.63,10,10,10,18,13,21,0.00,1,,264
2014-1-12,54,43,31,29,23,16,67,48,28,29.85,29.64,29.53,10,10,10,18,12,22,0.00,2,,279
2014-1-13,56,39,22,24,20,16,78,48,24,29.98,29.89,29.80,10,10,8,22,13,31,0.00,3,,279
2014-1-14,47,35,23,31,21,10,81,58,29,30.39,30.24,29.86,10,9,2,37,21,51,T,3,Snow,317
2014-1-15,60,41,22,24,21,17,78,52,22,30.35,30.09,29.90,10,10,10,26,11,33,0.00,3,,273
2014-1-16,47,36,25,23,12,3,59,37,17,30.30,30.10,29.95,10,9,4,46,25,60,0.00,2,,321
2014-1-17,48,33,17,18,15,10,74,53,29,30.28,30.16,29.96,10,10,10,14,10,,0.00,1,,262
2014-1-18,50,37,23,24,16,9,53,40,25,30.19,30.07,29.93,10,10,9,39,18,54,0.00,0,,301
2014-1-19,68,45,21,21,14,9,69,40,12,30.11,29.98,29.87,10,10,10,20,11,29,0.00,0,,276
2014-1-20,52,35,17,19,15,11,71,47,23,30.51,30.21,29.90,10,10,10,34,14,43,0.00,0,,331
2014-1-21,60,33,6,19,10,1,81,53,14,30.51,30.28,30.02,10,10,10,28,8,39,0.00,1,,291
2014-1-22,39,24,9,21,12,-11,78,60,40,30.63,30.31,30.16,10,10,10,26,11,33,0.00,4,,327
2014-1-23,23,11,-2,2,-7,-15,73,47,21,30.93,30.76,30.56,10,10,10,15,11,,0.00,1,,286
2014-1-24,59,32,5,29,14,0,80,46,20,30.51,30.17,29.99,10,10,10,33,14,41,0.00,2,,282
2014-1-25,58,48,37,33,25,21,55,44,31,30.11,29.97,29.81,10,10,10,21,14,26,0.00,0,,290
2014-1-26,60,38,16,27,18,-8,67,45,28,30.35,29.91,29.71,10,9,2,44,18,61,0.00,3,,318
2014-1-27,20,14,7,3,-4,-9,80,46,34,30.52,30.44,30.30,10,10,10,21,10,28,0.00,5,,152
2014-1-28,29,14,-2,4,-4,-9,83,50,23,30.53,30.40,30.26,10,10,10,20,10,26,0.00,1,,277
2014-1-29,58,30,2,14,5,-4,80,44,12,30.23,29.93,29.47,10,10,10,21,10,26,0.00,1,,236
2014-1-30,52,37,22,33,21,11,92,68,26,30.01,29.80,29.40,10,6,1,28,14,36,0.06,4,Snow,43
2014-1-31,22,19,16,20,16,14,93,88,81,30.12,29.99,29.87,10,3,0,16,9,,0.13,8,Fog-Snow,89